Alden, Michigan
Current Conditions -  °F | °C
As of 5:18 PM on Monday 20 Oct 2014 (Local Time) from KACB Reporting Station
Overcast Overcast  
Wind Chill: 49°   Ceiling: 1900
Heat Index: 49°   Visibility: 10mi
Dew Point: 43°   Wind: 0mph
Humidity: 79%   Direction: NA
Pressure: 29.85"   Gusts: NA
Location:  44.88°N, 85.28°W
Report Text: KACB 202118Z AUTO 00000KT 10SM OVC019 10/06 A2985 RMK AO2 T00950060
Loading
Personal Weather Stations






























Interactive Weather Map New forecast layout! Learn more

10-Day Weather Forecast

Advertisements
Track Severe Weather on mobile